sensor_id;sensor_type;location;lat;lon;timestamp;P1;durP1;ratioP1;P2;durP2;ratioP2
37701;SDS011;23548;51.196;6.838;2022-10-22T00:01:32;18.10;;;9.40;;
37701;SDS011;23548;51.196;6.838;2022-10-22T00:03:58;17.65;;;9.38;;
37701;SDS011;23548;51.196;6.838;2022-10-22T00:06:24;13.25;;;8.80;;
37701;SDS011;23548;51.196;6.838;2022-10-22T00:08:50;17.30;;;9.48;;
37701;SDS011;23548;51.196;6.838;2022-10-22T00:11:17;16.55;;;9.07;;
37701;SDS011;23548;51.196;6.838;2022-10-22T00:13:44;20.27;;;9.35;;
37701;SDS011;23548;51.196;6.838;2022-10-22T00:16:10;12.98;;;7.93;;
37701;SDS011;23548;51.196;6.838;2022-10-22T00:18:36;18.80;;;9.23;;
37701;SDS011;23548;51.196;6.838;2022-10-22T00:21:03;15.82;;;8.45;;
37701;SDS011;23548;51.196;6.838;2022-10-22T00:23:29;15.80;;;8.77;;
37701;SDS011;23548;51.196;6.838;2022-10-22T00:25:55;16.58;;;9.07;;
37701;SDS011;23548;51.196;6.838;2022-10-22T00:28:22;16.40;;;8.70;;
37701;SDS011;23548;51.196;6.838;2022-10-22T00:30:53;18.38;;;9.18;;
37701;SDS011;23548;51.196;6.838;2022-10-22T00:33:23;19.83;;;10.52;;
37701;SDS011;23548;51.196;6.838;2022-10-22T00:35:49;17.85;;;9.85;;
37701;SDS011;23548;51.196;6.838;2022-10-22T00:38:14;22.60;;;9.32;;
37701;SDS011;23548;51.196;6.838;2022-10-22T00:40:40;15.45;;;9.00;;
37701;SDS011;23548;51.196;6.838;2022-10-22T00:43:09;20.80;;;9.60;;
37701;SDS011;23548;51.196;6.838;2022-10-22T00:45:38;21.67;;;11.20;;
37701;SDS011;23548;51.196;6.838;2022-10-22T00:48:06;20.55;;;11.63;;
37701;SDS011;23548;51.196;6.838;2022-10-22T00:50:36;20.30;;;10.80;;
37701;SDS011;23548;51.196;6.838;2022-10-22T00:53:09;15.13;;;10.45;;
37701;SDS011;23548;51.196;6.838;2022-10-22T00:55:39;16.92;;;10.18;;
37701;SDS011;23548;51.196;6.838;2022-10-22T00:58:07;14.38;;;9.95;;
37701;SDS011;23548;51.196;6.838;2022-10-22T01:00:33;20.70;;;9.52;;
37701;SDS011;23548;51.196;6.838;2022-10-22T01:02:59;16.00;;;9.23;;
37701;SDS011;23548;51.196;6.838;2022-10-22T01:05:26;18.38;;;9.15;;
37701;SDS011;23548;51.196;6.838;2022-10-22T01:07:54;19.98;;;9.32;;
37701;SDS011;23548;51.196;6.838;2022-10-22T01:24:02;13.43;;;8.45;;
37701;SDS011;23548;51.196;6.838;2022-10-22T01:26:46;15.50;;;8.57;;
37701;SDS011;23548;51.196;6.838;2022-10-22T01:29:23;18.77;;;9.48;;
37701;SDS011;23548;51.196;6.838;2022-10-22T01:31:56;14.25;;;8.40;;
37701;SDS011;23548;51.196;6.838;2022-10-22T01:34:32;20.00;;;9.68;;
37701;SDS011;23548;51.196;6.838;2022-10-22T01:37:00;16.70;;;9.52;;
37701;SDS011;23548;51.196;6.838;2022-10-22T01:39:27;22.40;;;9.90;;
37701;SDS011;23548;51.196;6.838;2022-10-22T01:41:55;19.40;;;9.05;;
37701;SDS011;23548;51.196;6.838;2022-10-22T01:44:28;19.92;;;10.32;;
37701;SDS011;23548;51.196;6.838;2022-10-22T01:52:42;21.40;;;9.80;;
37701;SDS011;23548;51.196;6.838;2022-10-22T02:00:45;23.35;;;8.88;;
37701;SDS011;23548;51.196;6.838;2022-10-22T02:03:20;18.55;;;9.10;;
37701;SDS011;23548;51.196;6.838;2022-10-22T02:05:52;17.83;;;8.80;;
37701;SDS011;23548;51.196;6.838;2022-10-22T02:08:23;15.93;;;9.40;;
37701;SDS011;23548;51.196;6.838;2022-10-22T02:10:57;16.02;;;9.18;;
37701;SDS011;23548;51.196;6.838;2022-10-22T02:13:26;22.48;;;10.30;;
37701;SDS011;23548;51.196;6.838;2022-10-22T02:15:56;18.98;;;9.30;;
37701;SDS011;23548;51.196;6.838;2022-10-22T02:18:28;16.20;;;8.98;;
37701;SDS011;23548;51.196;6.838;2022-10-22T02:20:56;14.73;;;9.05;;
37701;SDS011;23548;51.196;6.838;2022-10-22T02:23:24;15.68;;;9.07;;
37701;SDS011;23548;51.196;6.838;2022-10-22T02:25:52;14.75;;;8.82;;
37701;SDS011;23548;51.196;6.838;2022-10-22T02:28:28;22.75;;;9.60;;
37701;SDS011;23548;51.196;6.838;2022-10-22T02:31:03;18.17;;;8.93;;
37701;SDS011;23548;51.196;6.838;2022-10-22T02:33:38;14.25;;;9.05;;
37701;SDS011;23548;51.196;6.838;2022-10-22T02:36:10;14.68;;;8.68;;
37701;SDS011;23548;51.196;6.838;2022-10-22T02:38:36;19.48;;;9.77;;
37701;SDS011;23548;51.196;6.838;2022-10-22T02:41:03;17.42;;;8.75;;
37701;SDS011;23548;51.196;6.838;2022-10-22T02:43:29;15.63;;;10.07;;
37701;SDS011;23548;51.196;6.838;2022-10-22T02:45:55;17.05;;;9.63;;
37701;SDS011;23548;51.196;6.838;2022-10-22T02:48:20;17.95;;;9.55;;
37701;SDS011;23548;51.196;6.838;2022-10-22T02:50:46;19.65;;;10.30;;
37701;SDS011;23548;51.196;6.838;2022-10-22T02:53:12;19.23;;;10.23;;
37701;SDS011;23548;51.196;6.838;2022-10-22T02:55:38;20.50;;;10.00;;
37701;SDS011;23548;51.196;6.838;2022-10-22T02:58:03;22.75;;;8.75;;
37701;SDS011;23548;51.196;6.838;2022-10-22T03:00:29;17.48;;;9.77;;
37701;SDS011;23548;51.196;6.838;2022-10-22T03:02:55;16.20;;;10.52;;
37701;SDS011;23548;51.196;6.838;2022-10-22T03:05:20;15.05;;;9.30;;
37701;SDS011;23548;51.196;6.838;2022-10-22T03:07:46;16.70;;;10.50;;
37701;SDS011;23548;51.196;6.838;2022-10-22T03:10:12;17.90;;;10.55;;
37701;SDS011;23548;51.196;6.838;2022-10-22T03:12:37;23.98;;;10.70;;
37701;SDS011;23548;51.196;6.838;2022-10-22T03:15:03;20.05;;;11.02;;
37701;SDS011;23548;51.196;6.838;2022-10-22T03:17:29;18.80;;;10.23;;
37701;SDS011;23548;51.196;6.838;2022-10-22T03:19:55;20.25;;;10.60;;
37701;SDS011;23548;51.196;6.838;2022-10-22T03:22:23;19.65;;;10.25;;
37701;SDS011;23548;51.196;6.838;2022-10-22T03:24:52;23.15;;;10.77;;
37701;SDS011;23548;51.196;6.838;2022-10-22T03:27:22;19.50;;;10.98;;
37701;SDS011;23548;51.196;6.838;2022-10-22T03:29:49;18.83;;;11.32;;
37701;SDS011;23548;51.196;6.838;2022-10-22T03:32:17;17.45;;;10.90;;
37701;SDS011;23548;51.196;6.838;2022-10-22T03:34:43;20.38;;;11.27;;
37701;SDS011;23548;51.196;6.838;2022-10-22T03:37:08;20.25;;;10.73;;
37701;SDS011;23548;51.196;6.838;2022-10-22T03:39:34;23.40;;;11.65;;
37701;SDS011;23548;51.196;6.838;2022-10-22T03:42:01;16.98;;;11.18;;
37701;SDS011;23548;51.196;6.838;2022-10-22T03:44:29;22.13;;;11.80;;
37701;SDS011;23548;51.196;6.838;2022-10-22T03:46:55;20.25;;;11.90;;
37701;SDS011;23548;51.196;6.838;2022-10-22T03:49:20;19.02;;;11.20;;
37701;SDS011;23548;51.196;6.838;2022-10-22T03:51:46;25.02;;;11.95;;
37701;SDS011;23548;51.196;6.838;2022-10-22T03:54:12;20.27;;;11.20;;
37701;SDS011;23548;51.196;6.838;2022-10-22T03:56:37;19.25;;;11.20;;
37701;SDS011;23548;51.196;6.838;2022-10-22T03:59:03;23.83;;;11.77;;
37701;SDS011;23548;51.196;6.838;2022-10-22T04:01:29;21.52;;;11.75;;
37701;SDS011;23548;51.196;6.838;2022-10-22T04:03:55;26.50;;;11.48;;
37701;SDS011;23548;51.196;6.838;2022-10-22T04:06:22;22.20;;;11.82;;
37701;SDS011;23548;51.196;6.838;2022-10-22T04:08:48;23.73;;;12.80;;
37701;SDS011;23548;51.196;6.838;2022-10-22T04:11:15;18.30;;;12.30;;
37701;SDS011;23548;51.196;6.838;2022-10-22T04:13:41;23.90;;;11.38;;
37701;SDS011;23548;51.196;6.838;2022-10-22T04:16:09;15.40;;;11.27;;
37701;SDS011;23548;51.196;6.838;2022-10-22T04:18:43;25.08;;;11.40;;
37701;SDS011;23548;51.196;6.838;2022-10-22T04:21:10;17.30;;;11.20;;
37701;SDS011;23548;51.196;6.838;2022-10-22T04:23:37;18.55;;;11.32;;
37701;SDS011;23548;51.196;6.838;2022-10-22T04:26:08;20.40;;;11.73;;
37701;SDS011;23548;51.196;6.838;2022-10-22T04:28:33;24.75;;;12.05;;
37701;SDS011;23548;51.196;6.838;2022-10-22T04:30:59;22.92;;;11.02;;
37701;SDS011;23548;51.196;6.838;2022-10-22T04:33:31;21.35;;;10.70;;
37701;SDS011;23548;51.196;6.838;2022-10-22T04:35:57;22.25;;;11.43;;
37701;SDS011;23548;51.196;6.838;2022-10-22T04:38:22;27.08;;;11.40;;
37701;SDS011;23548;51.196;6.838;2022-10-22T04:40:48;24.40;;;11.48;;
37701;SDS011;23548;51.196;6.838;2022-10-22T04:43:14;23.15;;;11.90;;
37701;SDS011;23548;51.196;6.838;2022-10-22T04:45:40;18.15;;;12.02;;
37701;SDS011;23548;51.196;6.838;2022-10-22T04:48:05;20.58;;;11.90;;
37701;SDS011;23548;51.196;6.838;2022-10-22T04:50:31;20.95;;;11.98;;
37701;SDS011;23548;51.196;6.838;2022-10-22T04:52:57;21.25;;;11.98;;
37701;SDS011;23548;51.196;6.838;2022-10-22T04:55:23;18.92;;;11.80;;
37701;SDS011;23548;51.196;6.838;2022-10-22T04:57:48;19.02;;;10.88;;
37701;SDS011;23548;51.196;6.838;2022-10-22T05:00:14;21.02;;;11.57;;
37701;SDS011;23548;51.196;6.838;2022-10-22T05:02:40;18.08;;;11.82;;
37701;SDS011;23548;51.196;6.838;2022-10-22T05:05:08;23.88;;;11.95;;
37701;SDS011;23548;51.196;6.838;2022-10-22T05:07:34;21.02;;;12.10;;
37701;SDS011;23548;51.196;6.838;2022-10-22T05:10:00;18.13;;;11.40;;
37701;SDS011;23548;51.196;6.838;2022-10-22T05:12:26;26.98;;;11.95;;
37701;SDS011;23548;51.196;6.838;2022-10-22T05:14:53;20.88;;;12.80;;
37701;SDS011;23548;51.196;6.838;2022-10-22T05:17:20;24.20;;;12.48;;
37701;SDS011;23548;51.196;6.838;2022-10-22T05:19:45;19.98;;;12.70;;
37701;SDS011;23548;51.196;6.838;2022-10-22T05:22:11;20.95;;;12.82;;
37701;SDS011;23548;51.196;6.838;2022-10-22T05:24:37;22.25;;;13.25;;
37701;SDS011;23548;51.196;6.838;2022-10-22T05:27:02;25.20;;;12.85;;
37701;SDS011;23548;51.196;6.838;2022-10-22T05:29:28;20.10;;;12.27;;
37701;SDS011;23548;51.196;6.838;2022-10-22T05:31:54;25.38;;;12.07;;
37701;SDS011;23548;51.196;6.838;2022-10-22T05:34:20;18.95;;;12.13;;
37701;SDS011;23548;51.196;6.838;2022-10-22T05:36:46;21.85;;;12.57;;
37701;SDS011;23548;51.196;6.838;2022-10-22T05:39:12;21.85;;;12.10;;
37701;SDS011;23548;51.196;6.838;2022-10-22T05:41:38;24.42;;;12.15;;
37701;SDS011;23548;51.196;6.838;2022-10-22T05:44:04;19.40;;;11.88;;
37701;SDS011;23548;51.196;6.838;2022-10-22T05:46:31;22.42;;;12.45;;
37701;SDS011;23548;51.196;6.838;2022-10-22T05:49:00;20.65;;;12.23;;
37701;SDS011;23548;51.196;6.838;2022-10-22T05:51:29;23.95;;;13.43;;
37701;SDS011;23548;51.196;6.838;2022-10-22T05:53:56;22.38;;;13.20;;
37701;SDS011;23548;51.196;6.838;2022-10-22T05:56:24;18.55;;;12.73;;
37701;SDS011;23548;51.196;6.838;2022-10-22T05:58:51;20.77;;;12.77;;
37701;SDS011;23548;51.196;6.838;2022-10-22T06:01:18;28.10;;;14.15;;
37701;SDS011;23548;51.196;6.838;2022-10-22T06:03:55;23.75;;;14.57;;
37701;SDS011;23548;51.196;6.838;2022-10-22T06:09:05;24.00;;;13.38;;
37701;SDS011;23548;51.196;6.838;2022-10-22T06:11:52;21.77;;;13.75;;
37701;SDS011;23548;51.196;6.838;2022-10-22T06:14:20;23.45;;;14.02;;
37701;SDS011;23548;51.196;6.838;2022-10-22T06:16:46;18.38;;;13.25;;
37701;SDS011;23548;51.196;6.838;2022-10-22T06:19:12;26.40;;;13.75;;
37701;SDS011;23548;51.196;6.838;2022-10-22T06:21:40;21.45;;;13.70;;
37701;SDS011;23548;51.196;6.838;2022-10-22T06:24:06;21.70;;;13.68;;
37701;SDS011;23548;51.196;6.838;2022-10-22T06:26:33;22.05;;;13.88;;
37701;SDS011;23548;51.196;6.838;2022-10-22T06:28:58;22.30;;;13.48;;
37701;SDS011;23548;51.196;6.838;2022-10-22T06:31:25;23.15;;;13.02;;
37701;SDS011;23548;51.196;6.838;2022-10-22T06:33:51;25.92;;;14.50;;
37701;SDS011;23548;51.196;6.838;2022-10-22T06:36:18;23.63;;;13.85;;
37701;SDS011;23548;51.196;6.838;2022-10-22T06:38:46;24.05;;;13.50;;
37701;SDS011;23548;51.196;6.838;2022-10-22T06:41:12;25.95;;;13.35;;
37701;SDS011;23548;51.196;6.838;2022-10-22T06:43:40;21.33;;;13.40;;
37701;SDS011;23548;51.196;6.838;2022-10-22T06:46:09;23.23;;;13.55;;
37701;SDS011;23548;51.196;6.838;2022-10-22T06:48:36;21.80;;;13.20;;
37701;SDS011;23548;51.196;6.838;2022-10-22T06:51:03;25.33;;;13.93;;
37701;SDS011;23548;51.196;6.838;2022-10-22T06:53:29;28.85;;;14.23;;
37701;SDS011;23548;51.196;6.838;2022-10-22T06:55:56;23.23;;;14.25;;
37701;SDS011;23548;51.196;6.838;2022-10-22T06:58:21;23.55;;;13.63;;
37701;SDS011;23548;51.196;6.838;2022-10-22T07:00:48;22.15;;;13.40;;
37701;SDS011;23548;51.196;6.838;2022-10-22T07:03:14;20.48;;;13.43;;
37701;SDS011;23548;51.196;6.838;2022-10-22T07:05:40;23.42;;;13.25;;
37701;SDS011;23548;51.196;6.838;2022-10-22T07:08:07;33.08;;;13.50;;
37701;SDS011;23548;51.196;6.838;2022-10-22T07:10:32;20.73;;;11.70;;
37701;SDS011;23548;51.196;6.838;2022-10-22T07:12:58;22.42;;;12.25;;
37701;SDS011;23548;51.196;6.838;2022-10-22T07:15:24;21.05;;;11.30;;
37701;SDS011;23548;51.196;6.838;2022-10-22T07:17:50;19.20;;;12.23;;
37701;SDS011;23548;51.196;6.838;2022-10-22T07:20:16;21.50;;;11.20;;
37701;SDS011;23548;51.196;6.838;2022-10-22T07:22:43;16.92;;;11.13;;
37701;SDS011;23548;51.196;6.838;2022-10-22T07:25:09;18.63;;;11.02;;
37701;SDS011;23548;51.196;6.838;2022-10-22T07:27:35;12.43;;;9.40;;
37701;SDS011;23548;51.196;6.838;2022-10-22T07:30:01;18.65;;;9.90;;
37701;SDS011;23548;51.196;6.838;2022-10-22T07:32:28;18.92;;;10.05;;
37701;SDS011;23548;51.196;6.838;2022-10-22T07:34:53;15.23;;;8.85;;
37701;SDS011;23548;51.196;6.838;2022-10-22T07:37:19;15.90;;;8.63;;
37701;SDS011;23548;51.196;6.838;2022-10-22T07:39:46;14.07;;;8.50;;
37701;SDS011;23548;51.196;6.838;2022-10-22T07:42:13;19.20;;;9.45;;
37701;SDS011;23548;51.196;6.838;2022-10-22T07:44:39;17.35;;;8.73;;
37701;SDS011;23548;51.196;6.838;2022-10-22T07:47:04;13.77;;;8.88;;
37701;SDS011;23548;51.196;6.838;2022-10-22T07:49:30;13.60;;;8.70;;
37701;SDS011;23548;51.196;6.838;2022-10-22T07:51:56;18.90;;;8.77;;
37701;SDS011;23548;51.196;6.838;2022-10-22T07:54:22;13.85;;;8.10;;
37701;SDS011;23548;51.196;6.838;2022-10-22T07:56:48;16.75;;;8.32;;
37701;SDS011;23548;51.196;6.838;2022-10-22T07:59:14;17.17;;;8.00;;
37701;SDS011;23548;51.196;6.838;2022-10-22T08:01:39;15.48;;;8.30;;
37701;SDS011;23548;51.196;6.838;2022-10-22T08:04:05;12.45;;;8.23;;
37701;SDS011;23548;51.196;6.838;2022-10-22T08:06:33;12.80;;;7.95;;
37701;SDS011;23548;51.196;6.838;2022-10-22T08:08:59;15.32;;;8.15;;
37701;SDS011;23548;51.196;6.838;2022-10-22T08:11:25;25.52;;;8.27;;
37701;SDS011;23548;51.196;6.838;2022-10-22T08:13:51;20.92;;;8.55;;
37701;SDS011;23548;51.196;6.838;2022-10-22T08:16:17;13.32;;;8.65;;
37701;SDS011;23548;51.196;6.838;2022-10-22T08:18:43;16.80;;;8.70;;
37701;SDS011;23548;51.196;6.838;2022-10-22T08:21:12;15.82;;;7.53;;
37701;SDS011;23548;51.196;6.838;2022-10-22T08:23:38;14.32;;;8.32;;
37701;SDS011;23548;51.196;6.838;2022-10-22T08:26:04;11.32;;;7.10;;
37701;SDS011;23548;51.196;6.838;2022-10-22T08:28:30;13.50;;;7.90;;
37701;SDS011;23548;51.196;6.838;2022-10-22T08:31:00;14.70;;;7.43;;
37701;SDS011;23548;51.196;6.838;2022-10-22T08:33:31;13.75;;;6.72;;
37701;SDS011;23548;51.196;6.838;2022-10-22T08:35:57;11.68;;;5.38;;
37701;SDS011;23548;51.196;6.838;2022-10-22T08:38:23;17.02;;;5.38;;
37701;SDS011;23548;51.196;6.838;2022-10-22T08:40:53;13.75;;;4.43;;
37701;SDS011;23548;51.196;6.838;2022-10-22T08:48:54;13.57;;;3.75;;
37701;SDS011;23548;51.196;6.838;2022-10-22T08:51:23;13.30;;;3.60;;
37701;SDS011;23548;51.196;6.838;2022-10-22T09:04:50;12.55;;;3.78;;
37701;SDS011;23548;51.196;6.838;2022-10-22T09:07:26;11.07;;;3.97;;
37701;SDS011;23548;51.196;6.838;2022-10-22T09:09:51;10.35;;;3.85;;
37701;SDS011;23548;51.196;6.838;2022-10-22T09:12:21;17.40;;;3.45;;
37701;SDS011;23548;51.196;6.838;2022-10-22T09:14:50;13.45;;;3.58;;
37701;SDS011;23548;51.196;6.838;2022-10-22T09:17:32;11.25;;;3.35;;
37701;SDS011;23548;51.196;6.838;2022-10-22T09:25:35;16.40;;;3.95;;
37701;SDS011;23548;51.196;6.838;2022-10-22T09:28:01;13.23;;;3.28;;
37701;SDS011;23548;51.196;6.838;2022-10-22T09:30:29;9.77;;;3.30;;
37701;SDS011;23548;51.196;6.838;2022-10-22T09:35:32;9.23;;;2.95;;
37701;SDS011;23548;51.196;6.838;2022-10-22T09:38:06;10.60;;;3.03;;
37701;SDS011;23548;51.196;6.838;2022-10-22T09:40:41;11.55;;;2.95;;
37701;SDS011;23548;51.196;6.838;2022-10-22T09:43:12;14.55;;;3.42;;
37701;SDS011;23548;51.196;6.838;2022-10-22T09:45:39;9.00;;;2.75;;
37701;SDS011;23548;51.196;6.838;2022-10-22T09:50:43;6.65;;;2.88;;
37701;SDS011;23548;51.196;6.838;2022-10-22T09:53:17;10.95;;;2.75;;
37701;SDS011;23548;51.196;6.838;2022-10-22T09:55:50;10.65;;;2.53;;
37701;SDS011;23548;51.196;6.838;2022-10-22T09:58:18;9.73;;;3.05;;
37701;SDS011;23548;51.196;6.838;2022-10-22T10:00:45;10.70;;;2.50;;
37701;SDS011;23548;51.196;6.838;2022-10-22T10:03:19;13.35;;;4.80;;
37701;SDS011;23548;51.196;6.838;2022-10-22T10:05:48;13.07;;;2.50;;
37701;SDS011;23548;51.196;6.838;2022-10-22T10:08:16;9.18;;;2.67;;
37701;SDS011;23548;51.196;6.838;2022-10-22T10:18:24;8.27;;;2.03;;
37701;SDS011;23548;51.196;6.838;2022-10-22T10:28:59;10.80;;;3.17;;
37701;SDS011;23548;51.196;6.838;2022-10-22T10:46:11;6.65;;;2.30;;
37701;SDS011;23548;51.196;6.838;2022-10-22T10:49:00;19.75;;;2.95;;
37701;SDS011;23548;51.196;6.838;2022-10-22T10:54:34;23.08;;;3.10;;
37701;SDS011;23548;51.196;6.838;2022-10-22T10:57:33;21.63;;;3.17;;
37701;SDS011;23548;51.196;6.838;2022-10-22T11:00:25;8.73;;;2.00;;
37701;SDS011;23548;51.196;6.838;2022-10-22T11:05:43;24.65;;;3.22;;
37701;SDS011;23548;51.196;6.838;2022-10-22T11:08:12;49.28;;;5.97;;
37701;SDS011;23548;51.196;6.838;2022-10-22T11:10:49;9.35;;;1.42;;
37701;SDS011;23548;51.196;6.838;2022-10-22T11:16:42;8.50;;;1.70;;
37701;SDS011;23548;51.196;6.838;2022-10-22T11:21:33;9.25;;;1.88;;
37701;SDS011;23548;51.196;6.838;2022-10-22T11:26:59;6.97;;;1.80;;
37701;SDS011;23548;51.196;6.838;2022-10-22T11:29:40;8.57;;;2.00;;
37701;SDS011;23548;51.196;6.838;2022-10-22T11:32:19;9.63;;;1.80;;
37701;SDS011;23548;51.196;6.838;2022-10-22T11:34:48;15.35;;;2.38;;
37701;SDS011;23548;51.196;6.838;2022-10-22T11:37:24;4.32;;;1.75;;
37701;SDS011;23548;51.196;6.838;2022-10-22T11:39:57;18.20;;;2.60;;
37701;SDS011;23548;51.196;6.838;2022-10-22T11:53:33;5.53;;;1.75;;
37701;SDS011;23548;51.196;6.838;2022-10-22T12:14:21;7.82;;;2.10;;
37701;SDS011;23548;51.196;6.838;2022-10-22T12:16:55;6.82;;;2.10;;
37701;SDS011;23548;51.196;6.838;2022-10-22T12:19:25;7.43;;;1.65;;
37701;SDS011;23548;51.196;6.838;2022-10-22T12:22:46;13.93;;;2.25;;
37701;SDS011;23548;51.196;6.838;2022-10-22T12:24:48;11.45;;;2.67;;
37701;SDS011;23548;51.196;6.838;2022-10-22T12:29:47;5.90;;;1.85;;
37701;SDS011;23548;51.196;6.838;2022-10-22T12:32:14;8.80;;;1.75;;
37701;SDS011;23548;51.196;6.838;2022-10-22T12:34:50;4.53;;;1.58;;
37701;SDS011;23548;51.196;6.838;2022-10-22T12:37:17;7.32;;;1.80;;
37701;SDS011;23548;51.196;6.838;2022-10-22T12:39:44;8.10;;;1.98;;
37701;SDS011;23548;51.196;6.838;2022-10-22T12:42:14;5.75;;;1.80;;
37701;SDS011;23548;51.196;6.838;2022-10-22T12:44:43;8.77;;;1.48;;
37701;SDS011;23548;51.196;6.838;2022-10-22T12:47:12;3.78;;;1.58;;
37701;SDS011;23548;51.196;6.838;2022-10-22T12:49:41;10.65;;;1.58;;
37701;SDS011;23548;51.196;6.838;2022-10-22T12:52:20;8.30;;;2.08;;
37701;SDS011;23548;51.196;6.838;2022-10-22T12:54:48;5.25;;;1.83;;
37701;SDS011;23548;51.196;6.838;2022-10-22T12:57:19;6.43;;;1.55;;
37701;SDS011;23548;51.196;6.838;2022-10-22T12:59:47;8.55;;;1.63;;
37701;SDS011;23548;51.196;6.838;2022-10-22T13:02:19;12.07;;;2.03;;
37701;SDS011;23548;51.196;6.838;2022-10-22T13:05:09;6.53;;;1.35;;
37701;SDS011;23548;51.196;6.838;2022-10-22T13:07:42;47.47;;;3.97;;
37701;SDS011;23548;51.196;6.838;2022-10-22T13:10:30;12.32;;;1.75;;
37701;SDS011;23548;51.196;6.838;2022-10-22T13:12:58;9.15;;;1.73;;
37701;SDS011;23548;51.196;6.838;2022-10-22T13:23:18;6.00;;;1.20;;
37701;SDS011;23548;51.196;6.838;2022-10-22T13:25:55;7.88;;;1.35;;
37701;SDS011;23548;51.196;6.838;2022-10-22T13:28:23;13.73;;;2.20;;
37701;SDS011;23548;51.196;6.838;2022-10-22T13:31:00;5.97;;;1.10;;
37701;SDS011;23548;51.196;6.838;2022-10-22T13:33:34;5.80;;;1.35;;
37701;SDS011;23548;51.196;6.838;2022-10-22T13:36:02;6.30;;;1.20;;
37701;SDS011;23548;51.196;6.838;2022-10-22T13:38:28;7.30;;;1.23;;
37701;SDS011;23548;51.196;6.838;2022-10-22T13:40:55;6.72;;;1.17;;
37701;SDS011;23548;51.196;6.838;2022-10-22T13:43:20;5.00;;;0.98;;
37701;SDS011;23548;51.196;6.838;2022-10-22T13:45:47;5.85;;;1.00;;
37701;SDS011;23548;51.196;6.838;2022-10-22T13:48:17;6.40;;;1.20;;
37701;SDS011;23548;51.196;6.838;2022-10-22T13:50:46;5.43;;;1.10;;
37701;SDS011;23548;51.196;6.838;2022-10-22T13:53:16;7.28;;;1.23;;
37701;SDS011;23548;51.196;6.838;2022-10-22T13:55:45;5.28;;;1.23;;
37701;SDS011;23548;51.196;6.838;2022-10-22T14:00:41;4.50;;;1.20;;
37701;SDS011;23548;51.196;6.838;2022-10-22T14:03:11;43.55;;;4.95;;
37701;SDS011;23548;51.196;6.838;2022-10-22T14:05:40;8.55;;;1.20;;
37701;SDS011;23548;51.196;6.838;2022-10-22T14:08:13;3.17;;;1.20;;
37701;SDS011;23548;51.196;6.838;2022-10-22T14:10:41;6.85;;;1.30;;
37701;SDS011;23548;51.196;6.838;2022-10-22T14:13:10;6.05;;;1.55;;
37701;SDS011;23548;51.196;6.838;2022-10-22T14:15:37;7.20;;;1.45;;
37701;SDS011;23548;51.196;6.838;2022-10-22T14:18:04;6.57;;;1.48;;
37701;SDS011;23548;51.196;6.838;2022-10-22T14:20:32;6.03;;;1.80;;
37701;SDS011;23548;51.196;6.838;2022-10-22T14:23:20;7.47;;;1.35;;
37701;SDS011;23548;51.196;6.838;2022-10-22T14:25:47;8.80;;;1.52;;
37701;SDS011;23548;51.196;6.838;2022-10-22T14:28:15;3.72;;;1.20;;
37701;SDS011;23548;51.196;6.838;2022-10-22T14:30:41;5.15;;;1.33;;
37701;SDS011;23548;51.196;6.838;2022-10-22T14:33:14;3.30;;;1.02;;
37701;SDS011;23548;51.196;6.838;2022-10-22T14:35:43;3.55;;;1.17;;
37701;SDS011;23548;51.196;6.838;2022-10-22T14:38:09;2.20;;;0.90;;
37701;SDS011;23548;51.196;6.838;2022-10-22T14:40:35;5.53;;;1.90;;
37701;SDS011;23548;51.196;6.838;2022-10-22T14:43:06;4.93;;;1.40;;
37701;SDS011;23548;51.196;6.838;2022-10-22T14:45:34;4.50;;;1.50;;
37701;SDS011;23548;51.196;6.838;2022-10-22T14:47:59;6.05;;;1.70;;
37701;SDS011;23548;51.196;6.838;2022-10-22T14:50:26;3.28;;;1.33;;
37701;SDS011;23548;51.196;6.838;2022-10-22T14:52:51;10.40;;;1.73;;
37701;SDS011;23548;51.196;6.838;2022-10-22T14:55:18;5.57;;;1.27;;
37701;SDS011;23548;51.196;6.838;2022-10-22T14:57:44;5.20;;;1.40;;
37701;SDS011;23548;51.196;6.838;2022-10-22T15:00:11;5.03;;;1.65;;
37701;SDS011;23548;51.196;6.838;2022-10-22T15:02:39;4.68;;;1.48;;
37701;SDS011;23548;51.196;6.838;2022-10-22T15:05:05;4.18;;;1.65;;
37701;SDS011;23548;51.196;6.838;2022-10-22T15:07:31;5.47;;;1.40;;
37701;SDS011;23548;51.196;6.838;2022-10-22T15:09:57;5.55;;;1.60;;
37701;SDS011;23548;51.196;6.838;2022-10-22T15:12:23;7.60;;;1.95;;
37701;SDS011;23548;51.196;6.838;2022-10-22T15:14:48;8.50;;;2.08;;
37701;SDS011;23548;51.196;6.838;2022-10-22T15:17:15;5.03;;;2.05;;
37701;SDS011;23548;51.196;6.838;2022-10-22T15:19:42;6.63;;;2.25;;
37701;SDS011;23548;51.196;6.838;2022-10-22T15:22:08;9.55;;;3.17;;
37701;SDS011;23548;51.196;6.838;2022-10-22T15:24:38;6.55;;;2.40;;
37701;SDS011;23548;51.196;6.838;2022-10-22T15:27:04;10.18;;;2.63;;
37701;SDS011;23548;51.196;6.838;2022-10-22T15:29:30;10.15;;;2.58;;
37701;SDS011;23548;51.196;6.838;2022-10-22T15:31:57;10.05;;;3.58;;
37701;SDS011;23548;51.196;6.838;2022-10-22T15:34:25;6.38;;;2.42;;
37701;SDS011;23548;51.196;6.838;2022-10-22T15:36:54;8.70;;;2.78;;
37701;SDS011;23548;51.196;6.838;2022-10-22T15:39:21;4.70;;;1.88;;
37701;SDS011;23548;51.196;6.838;2022-10-22T15:41:48;5.15;;;1.60;;
37701;SDS011;23548;51.196;6.838;2022-10-22T15:44:15;6.45;;;1.90;;
37701;SDS011;23548;51.196;6.838;2022-10-22T15:46:43;8.45;;;1.80;;
37701;SDS011;23548;51.196;6.838;2022-10-22T15:49:09;5.40;;;1.88;;
37701;SDS011;23548;51.196;6.838;2022-10-22T15:51:35;6.57;;;2.75;;
37701;SDS011;23548;51.196;6.838;2022-10-22T15:54:01;9.77;;;1.95;;
37701;SDS011;23548;51.196;6.838;2022-10-22T15:56:27;6.22;;;1.40;;
37701;SDS011;23548;51.196;6.838;2022-10-22T15:58:54;6.80;;;2.08;;
37701;SDS011;23548;51.196;6.838;2022-10-22T16:01:28;6.25;;;2.00;;
37701;SDS011;23548;51.196;6.838;2022-10-22T16:03:55;5.40;;;1.88;;
37701;SDS011;23548;51.196;6.838;2022-10-22T16:06:25;5.15;;;1.98;;
37701;SDS011;23548;51.196;6.838;2022-10-22T16:08:52;12.40;;;6.82;;
37701;SDS011;23548;51.196;6.838;2022-10-22T16:11:18;8.35;;;1.60;;
37701;SDS011;23548;51.196;6.838;2022-10-22T16:13:44;14.77;;;2.47;;
37701;SDS011;23548;51.196;6.838;2022-10-22T16:16:11;6.13;;;1.50;;
37701;SDS011;23548;51.196;6.838;2022-10-22T16:18:37;4.43;;;1.95;;
37701;SDS011;23548;51.196;6.838;2022-10-22T16:21:03;6.15;;;1.95;;
37701;SDS011;23548;51.196;6.838;2022-10-22T16:23:29;5.28;;;2.20;;
37701;SDS011;23548;51.196;6.838;2022-10-22T16:25:54;8.35;;;2.65;;
37701;SDS011;23548;51.196;6.838;2022-10-22T16:28:20;6.20;;;2.50;;
37701;SDS011;23548;51.196;6.838;2022-10-22T16:30:46;8.45;;;2.22;;
37701;SDS011;23548;51.196;6.838;2022-10-22T16:33:12;11.60;;;4.30;;
37701;SDS011;23548;51.196;6.838;2022-10-22T16:35:38;8.82;;;3.67;;
37701;SDS011;23548;51.196;6.838;2022-10-22T16:38:06;6.35;;;2.88;;
37701;SDS011;23548;51.196;6.838;2022-10-22T16:40:31;9.82;;;3.17;;
37701;SDS011;23548;51.196;6.838;2022-10-22T16:42:57;15.88;;;4.90;;
37701;SDS011;23548;51.196;6.838;2022-10-22T16:45:23;14.05;;;4.00;;
37701;SDS011;23548;51.196;6.838;2022-10-22T16:47:48;8.45;;;3.15;;
37701;SDS011;23548;51.196;6.838;2022-10-22T16:50:14;11.80;;;4.03;;
37701;SDS011;23548;51.196;6.838;2022-10-22T16:52:40;10.60;;;3.63;;
37701;SDS011;23548;51.196;6.838;2022-10-22T16:55:06;10.20;;;3.30;;
37701;SDS011;23548;51.196;6.838;2022-10-22T16:57:32;9.73;;;3.30;;
37701;SDS011;23548;51.196;6.838;2022-10-22T16:59:58;12.20;;;3.30;;
37701;SDS011;23548;51.196;6.838;2022-10-22T17:02:24;15.73;;;4.13;;